createdAt,value
2019-01-05T00:00:30.935Z,50.6
2019-01-05T00:01:31.000Z,51.1
2019-01-05T00:02:30.931Z,50.8
2019-01-05T00:03:30.932Z,51
2019-01-05T00:04:30.923Z,51.8
2019-01-05T00:05:30.995Z,51.9
2019-01-05T00:06:30.921Z,52.3
2019-01-05T00:07:30.919Z,52.5
2019-01-05T00:08:30.923Z,53.2
2019-01-05T00:09:31.829Z,53.1
2019-01-05T00:10:31.023Z,53.2
2019-01-05T00:11:30.918Z,53.4
2019-01-05T00:12:30.927Z,54.3
2019-01-05T00:13:30.931Z,54.6
2019-01-05T00:14:30.975Z,54.6
2019-01-05T00:15:30.915Z,54.9
2019-01-05T00:16:30.927Z,54.9
2019-01-05T00:17:30.916Z,54.8
2019-01-05T00:18:30.981Z,54.4
2019-01-05T00:19:31.001Z,54.1
2019-01-05T00:20:30.912Z,54.2
2019-01-05T00:21:30.911Z,52.7
2019-01-05T00:22:30.918Z,52.1
2019-01-05T00:23:30.923Z,52.3
2019-01-05T00:24:30.994Z,51.6
2019-01-05T00:25:30.909Z,50.8
2019-01-05T00:26:30.908Z,50.5
2019-01-05T00:27:30.915Z,50.2
2019-01-05T00:28:30.996Z,49.4
2019-01-05T00:29:30.932Z,49.4
2019-01-05T00:30:30.916Z,50.2
2019-01-05T00:31:30.906Z,50
2019-01-05T00:32:30.913Z,50
2019-01-05T00:33:30.989Z,50.3
2019-01-05T00:34:30.916Z,50.6
2019-01-05T00:35:31.000Z,51.3
2019-01-05T00:36:30.917Z,51.9
2019-01-05T00:37:30.911Z,52.4
2019-01-05T00:38:30.922Z,53.4
2019-01-05T00:39:30.912Z,53.7
2019-01-05T00:40:30.975Z,54.3
2019-01-05T00:41:30.985Z,55.2
2019-01-05T00:42:30.901Z,56.1
2019-01-05T00:43:30.911Z,56.6
2019-01-05T00:44:30.903Z,57
2019-01-05T00:45:30.914Z,56.8
2019-01-05T00:46:30.985Z,56.9
2019-01-05T00:47:30.922Z,57.2
2019-01-05T00:48:30.917Z,58.4
2019-01-05T00:49:30.907Z,58.3
2019-01-05T00:50:30.904Z,58.3
2019-01-05T00:51:30.916Z,58.6
2019-01-05T00:52:30.999Z,58.4
2019-01-05T00:53:30.903Z,58.3
2019-01-05T00:54:30.905Z,58.7
2019-01-05T00:55:30.908Z,59.2
2019-01-05T00:56:30.906Z,59.5
2019-01-05T00:57:30.993Z,59.2
2019-01-05T00:58:30.905Z,59.7
2019-01-05T00:59:30.882Z,60.6
2019-01-05T01:00:30.901Z,61.1
2019-01-05T01:01:30.902Z,60.9
2019-01-05T01:02:30.974Z,62.6
2019-01-05T01:03:30.972Z,62.8
2019-01-05T01:04:30.895Z,63.6
2019-01-05T01:05:30.902Z,63.8
2019-01-05T01:06:30.912Z,63.3
2019-01-05T01:07:30.981Z,63.3
2019-01-05T01:08:30.977Z,63.6
2019-01-05T01:09:30.884Z,63.4
2019-01-05T01:10:30.901Z,63.3
2019-01-05T01:11:30.897Z,63.1
2019-01-05T01:12:30.888Z,63.6
2019-01-05T01:13:30.970Z,63
2019-01-05T01:14:30.899Z,63.3
2019-01-05T01:15:30.874Z,64
2019-01-05T01:16:30.907Z,64
2019-01-05T01:17:30.893Z,63.5
2019-01-05T01:18:30.907Z,63.5
2019-01-05T01:19:30.969Z,63.6
2019-01-05T01:20:30.888Z,62.7
2019-01-05T01:21:30.959Z,62.2
2019-01-05T01:22:30.898Z,61.7
2019-01-05T01:23:30.902Z,61.9
2019-01-05T01:24:30.968Z,62
2019-01-05T01:25:30.878Z,61.5
2019-01-05T01:26:30.884Z,61.5
2019-01-05T01:27:30.901Z,61.7
2019-01-05T01:28:30.886Z,61
2019-01-05T01:29:30.964Z,60.8
2019-01-05T01:30:30.964Z,61.5
2019-01-05T01:31:30.871Z,62.3
2019-01-05T01:32:30.867Z,62.3
2019-01-05T01:33:30.895Z,62.7
2019-01-05T01:34:30.971Z,62.1
2019-01-05T01:35:30.950Z,63
2019-01-05T01:36:30.879Z,63.7
2019-01-05T01:37:30.864Z,63.8
2019-01-05T01:38:30.882Z,63.8
2019-01-05T01:39:30.894Z,63.9
2019-01-05T01:40:30.931Z,64.2
2019-01-05T01:41:30.882Z,64.4
2019-01-05T01:42:30.873Z,65.6
2019-01-05T01:43:30.958Z,65.8
2019-01-05T01:44:30.887Z,66.1
2019-01-05T01:45:30.870Z,66.6
2019-01-05T01:46:30.877Z,66.8
2019-01-05T01:47:30.964Z,67.4
2019-01-05T01:48:30.871Z,67.5
2019-01-05T01:49:30.895Z,67.4
2019-01-05T01:50:30.944Z,67.2
2019-01-05T01:51:30.887Z,68.1
2019-01-05T01:52:30.896Z,68.5
2019-01-05T01:53:30.870Z,69.1
2019-01-05T01:54:30.886Z,68.9
2019-01-05T01:55:30.942Z,68.8
2019-01-05T01:56:30.943Z,68.5
2019-01-05T01:57:30.879Z,68.4
2019-01-05T01:58:30.865Z,68.1
2019-01-05T01:59:30.930Z,67.5
2019-01-05T02:00:30.885Z,67.2
2019-01-05T02:01:30.922Z,67.3
2019-01-05T02:02:30.937Z,67.2
2019-01-05T02:03:30.861Z,67.3
2019-01-05T02:04:30.949Z,66.9
2019-01-05T02:05:30.868Z,66.3
2019-01-05T02:06:30.879Z,65.8
2019-01-05T02:07:30.860Z,66.3
2019-01-05T02:08:30.866Z,67.8
2019-01-05T02:09:30.927Z,67.3
2019-01-05T02:10:30.850Z,67.6
2019-01-05T02:11:30.877Z,67.4
2019-01-05T02:12:30.918Z,67.9
2019-01-05T02:13:30.869Z,68.8
2019-01-05T02:14:30.869Z,68.7
2019-01-05T02:15:30.862Z,69.5
2019-01-05T02:16:30.876Z,70.1
2019-01-05T02:17:30.928Z,70.8
2019-01-05T02:18:30.949Z,70.4
2019-01-05T02:19:30.875Z,70
2019-01-05T02:20:30.863Z,69.6
2019-01-05T02:21:30.857Z,70
2019-01-05T02:22:30.867Z,70.4
2019-01-05T02:23:30.924Z,70.2
2019-01-05T02:24:30.929Z,70.4
2019-01-05T02:25:30.858Z,70.6
2019-01-05T02:26:30.853Z,69.7
2019-01-05T02:27:30.854Z,69.5
2019-01-05T02:28:30.867Z,70
2019-01-05T02:29:30.923Z,69.7
2019-01-05T02:30:30.856Z,70
2019-01-05T02:31:30.842Z,70.8
2019-01-05T02:32:30.922Z,70.9
2019-01-05T02:33:30.858Z,71.5
2019-01-05T02:34:30.860Z,72.6
2019-01-05T02:35:30.863Z,73.4
2019-01-05T02:36:30.871Z,73.7
2019-01-05T02:37:30.965Z,72.8
2019-01-05T02:38:30.861Z,72.7
2019-01-05T02:39:30.849Z,72.3
2019-01-05T02:40:30.915Z,72.5
2019-01-05T02:41:30.923Z,73.3
2019-01-05T02:42:30.848Z,73.4
2019-01-05T02:43:30.867Z,72.9
2019-01-05T02:44:30.849Z,72.5
2019-01-05T02:45:30.913Z,73.5
2019-01-05T02:46:30.849Z,73.9
2019-01-05T02:47:30.960Z,74.3
2019-01-05T02:48:30.845Z,74.5
2019-01-05T02:49:30.841Z,73.6
2019-01-05T02:50:30.850Z,73.1
2019-01-05T02:51:30.861Z,72.8
2019-01-05T02:52:30.911Z,72.3
2019-01-05T02:53:30.835Z,72.1
2019-01-05T02:54:30.850Z,72.5
2019-01-05T02:55:30.845Z,72.1
2019-01-05T02:56:30.908Z,71.9
2019-01-05T02:57:30.854Z,71.4
2019-01-05T02:58:30.832Z,71.9
2019-01-05T02:59:30.827Z,72
2019-01-05T03:00:35.152Z,6.3
2019-01-05T03:01:35.082Z,13.5
2019-01-05T03:02:35.166Z,18.7
2019-01-05T03:03:35.087Z,24.1
2019-01-05T03:04:35.144Z,28.8
2019-01-05T03:05:35.099Z,33.1
2019-01-05T03:06:35.101Z,37.4
2019-01-05T03:07:35.074Z,40.7
2019-01-05T03:08:35.090Z,43.8
2019-01-05T03:09:35.144Z,47.1
2019-01-05T03:10:35.074Z,50.3
2019-01-05T03:11:35.088Z,53
2019-01-05T03:12:35.080Z,56.3
2019-01-05T03:13:35.161Z,58.5
2019-01-05T03:14:35.091Z,59.9
2019-01-05T03:15:35.074Z,60.9
2019-01-05T03:16:35.080Z,62
2019-01-05T03:17:35.075Z,63.3
2019-01-05T03:18:35.146Z,64.1
2019-01-05T03:19:35.075Z,64.6
2019-01-05T03:20:35.055Z,65.5
2019-01-05T03:21:35.065Z,66.3
2019-01-05T03:22:35.127Z,67.2
2019-01-05T03:23:35.067Z,68.1
2019-01-05T03:24:35.071Z,69.2
2019-01-05T03:25:35.128Z,70.8
2019-01-05T03:26:35.067Z,70.5
2019-01-05T03:27:35.080Z,71.5
2019-01-05T03:28:35.139Z,71.8
2019-01-05T03:29:35.090Z,71.9
2019-01-05T03:30:35.086Z,72.3
2019-01-05T03:31:35.053Z,73
2019-01-05T03:32:35.082Z,72.6
2019-01-05T03:33:35.212Z,72.4
2019-01-05T03:34:35.073Z,72.1
2019-01-05T03:35:35.143Z,72.2
2019-01-05T03:36:35.070Z,72.8
2019-01-05T03:37:35.078Z,72.5
2019-01-05T03:38:35.076Z,72.9
2019-01-05T03:39:35.065Z,72.8
2019-01-05T03:40:35.127Z,72.5
2019-01-05T03:41:35.145Z,73.6
2019-01-05T03:42:35.056Z,73.6
2019-01-05T03:43:35.191Z,74.7
2019-01-05T03:44:35.067Z,74.4
2019-01-05T03:45:35.067Z,74
2019-01-05T03:46:35.061Z,73.5
2019-01-05T03:47:35.053Z,74.4
2019-01-05T03:48:35.143Z,74.1
2019-01-05T03:49:35.053Z,73.6
2019-01-05T03:50:35.064Z,73.4
2019-01-05T03:51:35.144Z,73.6
2019-01-05T03:52:35.148Z,73.3
2019-01-05T03:53:35.044Z,72.8
2019-01-05T03:54:35.073Z,72.4
2019-01-05T03:55:35.059Z,71.4
2019-01-05T03:56:35.057Z,71.1
2019-01-05T03:57:35.124Z,69.7
2019-01-05T03:58:35.131Z,69.2
2019-01-05T03:59:35.081Z,69.9
2019-01-05T04:00:35.052Z,69.3
2019-01-05T04:01:35.056Z,69.2
2019-01-05T04:02:35.072Z,69.8
2019-01-05T04:03:35.137Z,69.9
2019-01-05T04:04:35.113Z,70
2019-01-05T04:05:35.063Z,70.2
2019-01-05T04:06:35.067Z,71
2019-01-05T04:07:35.055Z,70.7
2019-01-05T04:08:35.170Z,70.4
2019-01-05T04:09:35.099Z,70.9
2019-01-05T04:10:35.061Z,72.2
2019-01-05T04:11:35.063Z,72
2019-01-05T04:12:35.128Z,72
2019-01-05T04:13:35.049Z,71.5
2019-01-05T04:14:35.050Z,71.1
2019-01-05T04:15:35.030Z,71.9
2019-01-05T04:16:35.063Z,72.5
2019-01-05T04:17:35.121Z,72.4
2019-01-05T04:18:35.049Z,72.1
2019-01-05T04:19:35.064Z,72.7
2019-01-05T04:20:35.032Z,72.7
2019-01-05T04:21:35.038Z,73.2
2019-01-05T04:22:35.122Z,72.8
2019-01-05T04:23:35.058Z,72.8
2019-01-05T04:24:35.038Z,72.7
2019-01-05T04:25:35.032Z,72.7
2019-01-05T04:26:35.051Z,72.7
2019-01-05T04:27:35.108Z,72.9
2019-01-05T04:28:35.040Z,73.3
2019-01-05T04:29:35.057Z,74
2019-01-05T04:30:35.105Z,73.5
2019-01-05T04:31:35.042Z,73.1
2019-01-05T04:32:35.042Z,72.3
2019-01-05T04:33:35.038Z,72.7
2019-01-05T04:34:35.107Z,73.5
2019-01-05T04:35:35.041Z,73.9
2019-01-05T04:36:35.022Z,74.4
2019-01-05T04:37:35.022Z,74.6
2019-01-05T04:38:35.030Z,74.7
2019-01-05T04:39:35.100Z,75.1
2019-01-05T04:40:35.035Z,76.4
2019-01-05T04:41:35.143Z,75.4
2019-01-05T04:42:35.038Z,76.3
2019-01-05T04:43:35.041Z,76.3
2019-01-05T04:44:35.034Z,75.9
2019-01-05T04:45:44.926Z,75
2019-01-05T04:46:35.101Z,75
2019-01-05T04:47:35.025Z,74.7
2019-01-05T04:48:35.047Z,75
2019-01-05T04:49:35.113Z,75.1
2019-01-05T04:50:35.049Z,74.5
2019-01-05T04:51:35.034Z,74.6
2019-01-05T04:52:35.048Z,74.6
2019-01-05T04:53:35.020Z,74.7
2019-01-05T04:54:35.089Z,74.7
2019-01-05T04:55:35.092Z,74.1
2019-01-05T04:56:35.045Z,74.4
2019-01-05T04:57:35.024Z,74.8
2019-01-05T04:58:35.033Z,74.6
2019-01-05T04:59:35.026Z,74.9
2019-01-05T05:00:35.097Z,75.6
2019-01-05T05:01:35.039Z,74.9
2019-01-05T05:02:35.038Z,74.7
2019-01-05T05:03:35.033Z,74.7
2019-01-05T05:04:35.016Z,75.7
2019-01-05T05:05:35.112Z,75.8
2019-01-05T05:06:35.047Z,75.1
2019-01-05T05:07:35.036Z,76.2
2019-01-05T05:08:35.034Z,76.2
2019-01-05T05:09:35.007Z,76.2
2019-01-05T05:10:35.095Z,76.2
2019-01-05T05:11:35.018Z,75.6
2019-01-05T05:12:35.040Z,75.5
2019-01-05T05:13:35.025Z,76.3
2019-01-05T05:14:35.045Z,77.1
2019-01-05T05:15:35.084Z,76.9
2019-01-05T05:16:35.022Z,75.8
2019-01-05T05:17:35.021Z,76.8
2019-01-05T05:18:35.029Z,76.8
2019-01-05T05:19:35.029Z,76.7
2019-01-05T05:20:35.076Z,76
2019-01-05T05:21:35.022Z,77.3
2019-01-05T05:22:35.858Z,76.3
2019-01-05T05:23:35.031Z,76.2
2019-01-05T05:24:35.032Z,76.1
2019-01-05T05:25:35.021Z,75.2
2019-01-05T05:26:35.013Z,75.1
2019-01-05T05:27:35.095Z,75.7
2019-01-05T05:28:35.013Z,75.4
2019-01-05T05:29:35.018Z,74.5
2019-01-05T05:30:35.577Z,73.5
2019-01-05T05:31:35.008Z,74
2019-01-05T05:32:35.110Z,73.7
2019-01-05T05:33:35.007Z,74.7
2019-01-05T05:34:35.011Z,74.9
2019-01-05T05:35:35.029Z,74.8
2019-01-05T05:36:34.998Z,74.5
2019-01-05T05:37:35.049Z,73.8
2019-01-05T05:38:35.020Z,73.1
2019-01-05T05:39:35.073Z,72
2019-01-05T05:40:35.020Z,71.8
2019-01-05T05:41:35.010Z,71.4
2019-01-05T05:42:35.009Z,70.8
2019-01-05T05:43:35.017Z,70.1
2019-01-05T05:44:35.060Z,69.3
2019-01-05T05:45:35.085Z,69.4
2019-01-05T05:46:35.015Z,68.7
2019-01-05T05:47:34.992Z,69.1
2019-01-05T05:48:35.016Z,68.7
2019-01-05T05:49:35.019Z,68.6
2019-01-05T05:50:35.026Z,68.1
2019-01-05T05:51:35.019Z,68.6
2019-01-05T05:52:35.019Z,68
2019-01-05T05:53:35.074Z,67.9
2019-01-05T05:54:35.012Z,67.5
2019-01-05T05:55:35.015Z,66.8
2019-01-05T05:56:35.078Z,66.9
2019-01-05T05:57:35.005Z,66.5
2019-01-05T05:58:34.991Z,65.8
2019-01-05T05:59:35.000Z,65.8
2019-01-05T06:00:35.083Z,65.7
2019-01-05T06:01:35.006Z,65.2
2019-01-05T06:02:35.062Z,65.5
2019-01-05T06:03:35.088Z,66.2
2019-01-05T06:04:35.001Z,66.1
2019-01-05T06:05:34.994Z,66.9
2019-01-05T06:06:35.013Z,66.9
2019-01-05T06:07:35.011Z,67.4
2019-01-05T06:08:35.086Z,66.9
2019-01-05T06:09:34.999Z,66.6
2019-01-05T06:10:35.005Z,67.3
2019-01-05T06:11:35.004Z,67.2
2019-01-05T06:12:34.993Z,67.2
2019-01-05T06:13:35.063Z,66.6
2019-01-05T06:14:35.004Z,66.5
2019-01-05T06:15:34.982Z,65.4
2019-01-05T06:16:34.994Z,65.3
2019-01-05T06:17:34.996Z,65.5
2019-01-05T06:18:35.073Z,65.5
2019-01-05T06:19:35.008Z,65.9
2019-01-05T06:20:34.977Z,65.8
2019-01-05T06:21:35.005Z,64.9
2019-01-05T06:22:34.992Z,65.1
2019-01-05T06:23:35.117Z,65.4
2019-01-05T06:24:35.006Z,65.9
2019-01-05T06:25:34.990Z,65.6
2019-01-05T06:26:34.991Z,65.2
2019-01-05T06:27:35.006Z,65.1
2019-01-05T06:28:35.045Z,64.7
2019-01-05T06:29:35.006Z,65.6
2019-01-05T06:30:35.103Z,65
2019-01-05T06:31:34.997Z,65.5
2019-01-05T06:32:35.050Z,66.8
2019-01-05T06:33:34.991Z,67.8
2019-01-05T06:34:35.057Z,68.6
2019-01-05T06:35:34.987Z,68.6
2019-01-05T06:36:34.990Z,68.8
2019-01-05T06:37:34.981Z,68.7
2019-01-05T06:38:35.056Z,69
2019-01-05T06:39:34.987Z,69.4
2019-01-05T06:40:35.038Z,69.4
2019-01-05T06:41:34.997Z,68.7
2019-01-05T06:42:34.966Z,68.1
2019-01-05T06:43:35.046Z,67.7
2019-01-05T06:44:34.979Z,68.9
2019-01-05T06:45:35.077Z,69.2
2019-01-05T06:46:34.984Z,69.5
2019-01-05T06:47:34.978Z,69.6
2019-01-05T06:48:35.051Z,68.8
2019-01-05T06:49:34.983Z,68.5
2019-01-05T06:50:34.995Z,68.8
2019-01-05T06:51:34.993Z,69
2019-01-05T06:52:34.974Z,69.4
2019-01-05T06:53:35.028Z,69.5
2019-01-05T06:54:34.989Z,70.4
2019-01-05T06:55:34.988Z,70.9
2019-01-05T06:56:34.974Z,71.8
2019-01-05T06:57:35.060Z,71.7
2019-01-05T06:58:34.976Z,72.1
2019-01-05T06:59:34.967Z,71
2019-01-05T07:00:34.988Z,71.1
2019-01-05T07:01:35.047Z,71.2
2019-01-05T07:02:34.972Z,70.7
2019-01-05T07:03:34.990Z,70.1
2019-01-05T07:04:34.959Z,70.2
2019-01-05T07:05:35.039Z,69.8
2019-01-05T07:06:34.963Z,69.8
2019-01-05T07:07:34.978Z,69.8
2019-01-05T07:08:34.983Z,70
2019-01-05T07:09:34.965Z,69.6
2019-01-05T07:10:35.054Z,69.4
2019-01-05T07:11:34.980Z,68.6
2019-01-05T07:12:34.977Z,68.5
2019-01-05T07:13:35.046Z,68.2
2019-01-05T07:14:34.961Z,67.2
2019-01-05T07:15:34.988Z,66.7
2019-01-05T07:16:34.969Z,65.9
2019-01-05T07:17:34.981Z,64.8
2019-01-05T07:18:35.049Z,64.7
2019-01-05T07:19:34.962Z,63.9
2019-01-05T07:20:35.032Z,63
2019-01-05T07:21:34.983Z,62.7
2019-01-05T07:22:35.032Z,62.5
2019-01-05T07:23:34.969Z,62.5
2019-01-05T07:24:35.046Z,63.3
2019-01-05T07:25:34.949Z,63.2
2019-01-05T07:26:35.016Z,63.5
2019-01-05T07:27:34.965Z,63.7
2019-01-05T07:28:34.957Z,63.7
2019-01-05T07:29:35.032Z,64.1
2019-01-05T07:30:34.957Z,64.6
2019-01-05T07:31:34.957Z,64.5
2019-01-05T07:32:34.955Z,64.6
2019-01-05T07:33:34.971Z,64.4
2019-01-05T07:34:35.023Z,64.2
2019-01-05T07:35:34.965Z,64.7
2019-01-05T07:36:34.944Z,65.2
2019-01-05T07:37:34.959Z,64.6
2019-01-05T07:38:35.018Z,64.8
2019-01-05T07:39:34.966Z,64.6
2019-01-05T07:40:34.954Z,64.7
2019-01-05T07:41:34.956Z,65.3
2019-01-05T07:42:34.951Z,65
2019-01-05T07:43:34.950Z,64.4
2019-01-05T07:44:34.970Z,64.3
2019-01-05T07:45:34.970Z,63.8
2019-01-05T07:46:34.964Z,63.7
2019-01-05T07:47:34.939Z,63.4
2019-01-05T07:48:35.096Z,62.9
2019-01-05T07:49:34.951Z,62.3
2019-01-05T07:50:34.954Z,62.4
2019-01-05T07:51:34.970Z,62.1
2019-01-05T07:52:34.967Z,62.5
2019-01-05T07:53:34.998Z,62.9
2019-01-05T07:54:34.946Z,62.8
2019-01-05T07:55:34.963Z,63.7
2019-01-05T07:56:34.953Z,63.6
2019-01-05T07:57:34.937Z,63.4
2019-01-05T07:58:35.009Z,63.3
2019-01-05T07:59:34.948Z,63.2
2019-01-05T08:00:34.963Z,63
2019-01-05T08:01:34.952Z,63.4
2019-01-05T08:02:34.960Z,63.3
2019-01-05T08:03:34.947Z,63.3
2019-01-05T08:04:34.948Z,63.5
2019-01-05T08:05:35.031Z,62.9
2019-01-05T08:06:34.953Z,62.2
2019-01-05T08:07:34.948Z,61.9
2019-01-05T08:08:34.940Z,62.1
2019-01-05T08:09:34.927Z,61.9
2019-01-05T08:10:35.023Z,61.6
2019-01-05T08:11:34.959Z,61.5
2019-01-05T08:12:34.952Z,61.2
2019-01-05T08:13:35.054Z,61
2019-01-05T08:14:34.942Z,60.6
2019-01-05T08:15:35.014Z,60.1
2019-01-05T08:16:35.023Z,59.6
2019-01-05T08:17:34.952Z,59.3
2019-01-05T08:18:34.958Z,59.8
2019-01-05T08:19:35.016Z,60
2019-01-05T08:20:35.004Z,60
2019-01-05T08:21:34.922Z,60.3
2019-01-05T08:22:35.031Z,60.3
2019-01-05T08:23:35.179Z,59.4
2019-01-05T08:24:35.067Z,59
2019-01-05T08:25:34.973Z,59
2019-01-05T08:26:34.978Z,59.5
2019-01-05T08:27:35.002Z,59.5
2019-01-05T08:28:35.041Z,59.4
2019-01-05T08:29:34.983Z,59.1
2019-01-05T08:30:35.006Z,58.6
2019-01-05T08:31:34.930Z,58.5
2019-01-05T08:32:35.220Z,58.8
2019-01-05T08:33:35.043Z,58.5
2019-01-05T08:34:34.990Z,58.1
2019-01-05T08:35:35.028Z,58
2019-01-05T08:36:34.987Z,58
2019-01-05T08:37:34.967Z,58
2019-01-05T08:38:34.994Z,58.5
2019-01-05T08:39:34.949Z,58.7
2019-01-05T08:40:35.077Z,58.3
2019-01-05T08:41:34.980Z,58.8
2019-01-05T08:42:34.967Z,59.2
2019-01-05T08:43:34.943Z,59.4
2019-01-05T08:44:35.017Z,59.5
2019-01-05T08:45:34.935Z,59.9
2019-01-05T08:46:34.924Z,60.2
2019-01-05T08:47:34.930Z,60.2
2019-01-05T08:48:34.941Z,60.2
2019-01-05T08:49:35.008Z,60
2019-01-05T08:50:34.942Z,59.8
2019-01-05T08:51:34.910Z,59.5
2019-01-05T08:52:34.931Z,59.6
2019-01-05T08:53:35.031Z,59.1
2019-01-05T08:54:34.922Z,59
2019-01-05T08:55:34.947Z,58.4
2019-01-05T08:56:34.920Z,58.3
2019-01-05T08:57:34.990Z,58.4
2019-01-05T08:58:34.914Z,58.5
2019-01-05T08:59:34.939Z,58.6
2019-01-05T09:00:34.916Z,59.2
2019-01-05T09:01:34.923Z,58.7
2019-01-05T09:02:34.931Z,58
2019-01-05T09:03:34.923Z,58.3
2019-01-05T09:04:34.919Z,59.4
2019-01-05T09:05:34.935Z,59.6
2019-01-05T09:06:34.913Z,59.8
2019-01-05T09:07:34.991Z,60.5
2019-01-05T09:08:34.922Z,60.4
2019-01-05T09:09:34.912Z,60.6
2019-01-05T09:10:34.929Z,60.2
2019-01-05T09:11:34.913Z,59.9
2019-01-05T09:12:34.982Z,59.6
2019-01-05T09:13:34.920Z,59.7
2019-01-05T09:14:34.937Z,60.2
2019-01-05T09:15:34.984Z,59.5
2019-01-05T09:16:34.927Z,59.6
2019-01-05T09:17:34.996Z,59.2
2019-01-05T09:18:34.915Z,59.7
2019-01-05T09:19:34.913Z,60.1
2019-01-05T09:20:34.965Z,60.9
2019-01-05T09:21:34.931Z,61.2
2019-01-05T09:22:34.900Z,61.4
2019-01-05T09:23:34.923Z,62.7
2019-01-05T09:24:34.915Z,63.9
2019-01-05T09:25:34.958Z,63.9
2019-01-05T09:27:38.188Z,6.3
2019-01-05T09:28:38.281Z,12.6
2019-01-05T09:29:38.190Z,17.1
2019-01-05T09:31:40.452Z,6.6
2019-01-05T09:32:40.461Z,13
2019-01-05T09:33:40.561Z,18.7
2019-01-05T09:34:40.450Z,22.6
2019-01-05T09:35:40.464Z,26.1
2019-01-05T09:36:40.455Z,29.4
2019-01-05T09:37:40.437Z,32.9
2019-01-05T09:38:40.502Z,35.8
2019-01-05T09:39:40.463Z,38.5
2019-01-05T09:40:40.460Z,42
2019-01-05T09:41:40.475Z,44.7
2019-01-05T09:42:40.446Z,46.6
2019-01-05T09:43:40.528Z,48.9
2019-01-05T09:44:40.460Z,50.6
2019-01-05T09:45:40.520Z,52.5
2019-01-05T09:46:40.460Z,53.6
2019-01-05T09:47:40.511Z,54.4
2019-01-05T09:48:40.461Z,56.1
2019-01-05T09:49:40.442Z,57.2
2019-01-05T09:50:40.441Z,58.3
2019-01-05T09:51:40.431Z,58.1
2019-01-05T09:52:40.493Z,59.7
2019-01-05T09:53:40.511Z,61.1
2019-01-05T09:54:46.603Z,6.9
2019-01-05T09:55:46.611Z,13.3
2019-01-05T09:56:46.590Z,19.4
2019-01-05T09:57:46.664Z,25.5
2019-01-05T09:58:46.591Z,30.3
2019-01-05T09:59:46.617Z,35.2
2019-01-05T10:00:46.592Z,39.4
2019-01-05T10:01:46.601Z,43.6
2019-01-05T10:02:46.766Z,47.2
2019-01-05T10:03:46.585Z,50.6
2019-01-05T10:04:46.598Z,53
2019-01-05T10:05:46.584Z,56.3
2019-01-05T10:06:46.609Z,58.1
2019-01-05T10:07:46.759Z,60.4
2019-01-05T10:08:46.942Z,62.5
2019-01-05T10:09:46.929Z,63.3
2019-01-05T10:10:46.591Z,65.7
2019-01-05T10:11:46.600Z,67.2
2019-01-05T10:12:48.236Z,68
2019-01-05T10:13:47.079Z,69.5
2019-01-05T10:14:46.592Z,69.8
2019-01-05T10:15:46.646Z,70.2
2019-01-05T10:16:46.585Z,71.2
2019-01-05T10:17:46.661Z,71.3
2019-01-05T10:18:46.579Z,71.4
2019-01-05T10:19:46.660Z,71.5
2019-01-05T10:20:46.969Z,72.6
2019-01-05T10:21:47.033Z,73.1
2019-01-05T10:22:46.879Z,72.8
2019-01-05T10:23:46.602Z,73
2019-01-05T10:24:46.989Z,73.6
2019-01-05T10:25:46.575Z,74.7
2019-01-05T10:26:46.583Z,75.7
2019-01-05T10:27:47.405Z,76.3
2019-01-05T10:28:46.564Z,76.3
2019-01-05T10:29:47.222Z,76.9
2019-01-05T10:30:48.196Z,77.6
2019-01-05T10:31:46.884Z,77.2
2019-01-05T10:32:49.035Z,77.4
2019-01-05T10:33:46.571Z,77.7
2019-01-05T10:34:46.580Z,78.1
2019-01-05T10:35:46.590Z,78.2
2019-01-05T10:36:46.707Z,78.4
2019-01-05T10:37:47.103Z,79.1
2019-01-05T10:38:46.558Z,79.4
2019-01-05T10:39:46.643Z,79.5
2019-01-05T10:40:46.592Z,79.6
2019-01-05T10:41:46.641Z,80.2
2019-01-05T10:42:52.688Z,7
2019-01-05T10:43:52.771Z,14
2019-01-05T10:44:52.684Z,20.8
2019-01-05T10:45:52.703Z,27.2
2019-01-05T10:46:53.338Z,32.2
2019-01-05T10:47:52.688Z,37
2019-01-05T10:48:52.756Z,41.1
2019-01-05T10:49:52.699Z,44.8
2019-01-05T10:50:52.680Z,49.2
2019-01-05T10:51:52.720Z,52.6
2019-01-05T10:52:52.692Z,56.5
2019-01-05T10:53:52.757Z,59.3
2019-01-05T10:54:52.690Z,61.2
2019-01-05T10:55:52.719Z,63.6
2019-01-05T10:56:52.919Z,64.8
2019-01-05T10:57:52.780Z,66
2019-01-05T10:58:52.690Z,67.7
2019-01-05T10:59:52.770Z,68.4
2019-01-05T11:00:52.781Z,69.5
2019-01-05T11:01:52.754Z,70.3
2019-01-05T11:02:52.680Z,71.2
2019-01-05T11:03:52.676Z,72.1
2019-01-05T11:04:52.750Z,73.4
2019-01-05T11:05:52.713Z,73.3
2019-01-05T11:06:52.766Z,73.4
2019-01-05T11:07:52.706Z,73.8
2019-01-05T11:08:52.799Z,74.7
2019-01-05T11:09:52.745Z,75.6
2019-01-05T11:10:52.688Z,75.4
2019-01-05T11:11:52.756Z,75.6
2019-01-05T11:12:52.779Z,76.1
2019-01-05T11:14:57.012Z,7.1
2019-01-05T11:15:57.080Z,13.6
2019-01-05T11:16:57.074Z,19.6
2019-01-05T11:17:57.022Z,26.3
2019-01-05T11:18:58.184Z,32.4
2019-01-05T11:19:57.010Z,36.7
2019-01-05T11:20:57.111Z,41
2019-01-05T11:21:57.086Z,44
2019-01-05T11:22:57.007Z,47.3
2019-01-05T11:23:57.025Z,50.2
2019-01-05T11:24:57.012Z,52.5
2019-01-05T11:25:57.084Z,54.2
2019-01-05T11:26:57.008Z,57.4
2019-01-05T11:27:57.038Z,60.6
2019-01-05T11:28:57.016Z,63
2019-01-05T11:29:57.054Z,64.2
2019-01-05T11:30:57.166Z,67.2
2019-01-05T11:31:57.018Z,70
2019-01-05T11:32:57.001Z,72.5
2019-01-05T11:33:57.152Z,73.7
2019-01-05T11:34:56.993Z,73.9
2019-01-05T11:35:57.070Z,75.6
2019-01-05T11:36:57.008Z,76.7
2019-01-05T11:38:00.033Z,76.8
2019-01-05T11:38:59.072Z,77.4
2019-01-05T11:40:00.243Z,79
2019-01-05T11:40:59.081Z,80.5
2019-01-05T11:41:58.784Z,80.8
2019-01-05T11:42:59.333Z,81.8
2019-01-05T11:43:59.189Z,82.4
2019-01-05T11:44:59.107Z,83
2019-01-05T11:45:59.310Z,85.4
2019-01-05T11:46:58.632Z,86.7
2019-01-05T11:49:02.671Z,8
2019-01-05T11:50:01.081Z,15.3
2019-01-05T11:51:01.373Z,22
2019-01-05T11:52:00.881Z,27.9
2019-01-05T11:53:00.734Z,33.5
2019-01-05T11:54:00.720Z,38.4
2019-01-05T11:55:00.787Z,41.2
2019-01-05T11:56:00.702Z,44.8
2019-01-05T11:57:11.747Z,8.7
2019-01-05T11:58:09.346Z,16.6
2019-01-05T11:59:09.379Z,22.7
2019-01-05T12:00:10.645Z,28.3
2019-01-05T12:01:09.437Z,33.1
2019-01-05T12:02:10.935Z,37
2019-01-05T12:03:11.692Z,41.3
2019-01-05T12:04:09.313Z,44.2
2019-01-05T12:05:09.599Z,47.4
2019-01-05T12:06:09.347Z,49.7
2019-01-05T12:07:09.828Z,52.2
2019-01-05T12:08:09.457Z,54.6
2019-01-05T12:09:09.355Z,57.5
2019-01-05T12:10:09.396Z,59.8
2019-01-05T12:11:10.017Z,60.6
2019-01-05T12:12:09.420Z,62.2
2019-01-05T12:13:09.408Z,64.6
2019-01-05T12:14:09.403Z,66
2019-01-05T12:15:09.324Z,68.2
2019-01-05T12:16:09.744Z,69.9
2019-01-05T12:17:09.324Z,71.4
2019-01-05T12:18:11.816Z,71.7
2019-01-05T12:19:09.674Z,72.9
2019-01-05T12:20:09.396Z,73.5
2019-01-05T12:21:13.102Z,6.6
2019-01-05T12:22:12.942Z,12.6
2019-01-05T12:23:12.943Z,18
2019-01-05T12:24:13.086Z,23.1
2019-01-05T12:25:13.000Z,27.4
2019-01-05T12:26:13.158Z,31.4
2019-01-05T12:27:12.996Z,34.9
2019-01-05T12:28:13.008Z,38.2
2019-01-05T12:29:13.380Z,41.8
2019-01-05T12:30:12.933Z,45.6
2019-01-05T12:31:13.616Z,49.3
2019-01-05T12:32:13.086Z,51.7
2019-01-05T12:33:13.119Z,53.8
2019-01-05T12:34:13.527Z,56.1
2019-01-05T12:35:12.934Z,58.8
2019-01-05T12:36:13.114Z,61
2019-01-05T12:37:12.945Z,63.1
2019-01-05T12:38:16.021Z,63.5
2019-01-05T12:39:13.034Z,64.1
2019-01-05T12:40:12.926Z,65.2
2019-01-05T12:41:13.086Z,66.9
2019-01-05T12:42:13.118Z,69.5
2019-01-05T12:43:12.953Z,71.9
2019-01-05T12:44:13.009Z,73.4
2019-01-05T12:45:13.268Z,73.4
2019-01-05T12:46:12.944Z,74.1
2019-01-05T12:47:13.163Z,74.2
2019-01-05T12:48:12.937Z,75.5
2019-01-05T12:49:12.933Z,76.2
2019-01-05T12:50:17.152Z,76.1
2019-01-05T12:51:13.035Z,75
2019-01-05T12:52:12.946Z,75.6
2019-01-05T12:53:12.953Z,76.2
2019-01-05T12:54:12.945Z,77.5
2019-01-05T12:55:12.944Z,79
2019-01-05T12:56:12.953Z,78.9
2019-01-05T12:57:12.937Z,79.4
2019-01-05T12:58:12.934Z,79.3
2019-01-05T12:59:12.943Z,79.4
2019-01-05T13:00:12.943Z,80.1
2019-01-05T13:01:12.939Z,80.7
2019-01-05T13:02:12.947Z,81.6
2019-01-05T13:03:12.939Z,82
2019-01-05T13:04:20.115Z,8.5
2019-01-05T13:05:20.141Z,16.2
2019-01-05T13:06:20.116Z,22.3
2019-01-05T13:07:20.122Z,28.1
2019-01-05T13:08:20.188Z,33
2019-01-05T13:09:20.178Z,37
2019-01-05T13:10:20.105Z,41.9
2019-01-05T13:11:20.103Z,46.5
2019-01-05T13:12:20.091Z,50.9
2019-01-05T13:13:20.124Z,54.8
2019-01-05T13:14:20.184Z,57.5
2019-01-05T13:15:20.118Z,61.2
2019-01-05T13:16:20.174Z,63.2
2019-01-05T13:17:20.121Z,65.3
2019-01-05T13:18:20.203Z,68.5
2019-01-05T13:19:20.121Z,69.8
2019-01-05T13:20:20.130Z,70.8
2019-01-05T13:21:20.098Z,70.8
2019-01-05T13:22:20.124Z,71.2
2019-01-05T13:23:20.220Z,72.8
2019-01-05T13:24:20.122Z,74.4
2019-01-05T13:25:20.106Z,75.2
2019-01-05T13:26:20.109Z,76.9
2019-01-05T13:27:20.093Z,77.8
2019-01-05T13:28:20.173Z,78.3